Time;durP1;ratioP1;P1;durP2;ratioP2;P2;SDS_P1;SDS_P2;PMS_P1;PMS_P2;Temp;Humidity;BMP_temperature;BMP_pressure;BME280_temperature;BME280_humidity;BME280_pressure;Samples;Min_cycle;Max_cycle;Signal;HPM_P1;HPM_P2
2021/04/11 00:08:13;;;;;;;8.40;5.38;;;14.70;72.90;;;;;;20748374;28;20037;-62
2021/04/11 00:18:14;;;;;;;6.93;4.90;;;14.70;73.50;;;;;;20747660;28;20486;-63
2021/04/11 00:28:17;;;;;;;6.70;4.57;;;14.60;73.80;;;;;;20758473;28;20402;-61
2021/04/11 00:38:17;;;;;;;5.00;2.95;;;14.50;74.30;;;;;;20763156;28;20045;-64
2021/04/11 00:48:22;;;;;;;5.68;3.60;;;14.60;72.80;;;;;;20761998;28;20029;-63
2021/04/11 00:58:25;;;;;;;6.55;3.15;;;14.70;73.00;;;;;;20761473;28;20053;-66
2021/04/11 01:08:31;;;;;;;9.48;4.55;;;14.50;73.00;;;;;;20743500;28;20046;-60
2021/04/11 01:18:32;;;;;;;7.13;3.85;;;14.60;73.50;;;;;;20760251;28;20030;-59
2021/04/11 01:28:43;;;;;;;6.70;4.00;;;14.50;73.40;;;;;;20759418;28;20030;-60
2021/04/11 01:38:45;;;;;;;7.35;4.13;;;14.50;73.60;;;;;;20758176;28;20044;-60
2021/04/11 01:48:49;;;;;;;6.75;4.93;;;14.50;74.20;;;;;;20758215;28;20076;-61
2021/04/11 01:58:50;;;;;;;8.93;5.30;;;14.40;74.50;;;;;;20757200;28;20053;-63
2021/04/11 02:09:00;;;;;;;11.48;5.70;;;14.50;74.20;;;;;;20756739;28;20022;-64
2021/04/11 02:19:04;;;;;;;14.80;8.02;;;14.50;73.80;;;;;;20755806;28;20030;-64
2021/04/11 02:29:17;;;;;;;11.80;7.60;;;14.70;73.90;;;;;;20755439;28;20070;-64
2021/04/11 02:39:28;;;;;;;11.57;7.10;;;14.60;75.00;;;;;;20754248;28;20508;-63
2021/04/11 02:49:29;;;;;;;11.32;6.75;;;14.40;75.50;;;;;;20752799;28;20026;-63
2021/04/11 02:59:30;;;;;;;8.07;5.50;;;14.20;75.70;;;;;;20752512;28;20061;-60
2021/04/11 03:09:37;;;;;;;6.18;4.03;;;14.20;75.60;;;;;;20752263;28;20609;-59
2021/04/11 03:19:45;;;;;;;5.78;4.60;;;14.30;74.90;;;;;;20751429;28;20064;-59
2021/04/11 03:30:09;;;;;;;7.55;4.07;;;14.30;74.90;;;;;;20751898;28;20018;-60
2021/04/11 03:40:17;;;;;;;6.22;3.85;;;14.30;74.60;;;;;;20749414;28;20113;-64
2021/04/11 03:50:39;;;;;;;5.40;3.28;;;14.20;74.90;;;;;;20749433;28;20041;-64
2021/04/11 04:00:58;;;;;;;5.32;2.60;;;14.30;74.40;;;;;;20747906;28;20077;-61
2021/04/11 04:11:28;;;;;;;8.00;2.00;;;14.20;75.10;;;;;;20748665;28;20038;-61
2021/04/11 04:22:10;;;;;;;3.35;1.52;;;14.10;74.90;;;;;;20748342;28;20065;-62
2021/04/11 04:32:52;;;;;;;2.13;1.20;;;14.20;74.90;;;;;;20340402;29;20036;-61
2021/04/11 04:43:10;;;;;;;5.10;1.30;;;14.20;74.20;;;;;;20325763;29;20082;-62
2021/04/11 04:53:16;;;;;;;1.95;1.00;;;14.20;74.20;;;;;;20347712;29;20036;-64
2021/04/11 05:03:24;;;;;;;0.80;0.60;;;14.10;74.10;;;;;;20528422;28;20054;-63
2021/04/11 05:13:30;;;;;;;0.80;0.50;;;14.20;73.20;;;;;;20760010;28;20041;-64
2021/04/11 05:23:44;;;;;;;1.83;0.80;;;14.10;72.80;;;;;;20765728;28;20073;-64
2021/04/11 05:33:46;;;;;;;1.23;0.80;;;14.10;73.10;;;;;;20766263;28;20421;-61
2021/04/11 05:44:08;;;;;;;1.35;0.98;;;14.10;73.10;;;;;;20765267;28;20049;-62
2021/04/11 05:54:19;;;;;;;2.03;1.23;;;14.20;72.80;;;;;;20767761;28;20057;-63
2021/04/11 06:04:47;;;;;;;2.03;1.20;;;13.90;73.90;;;;;;20769181;28;20044;-64
2021/04/11 06:15:00;;;;;;;2.33;1.25;;;13.90;74.00;;;;;;20765911;28;20536;-64
2021/04/11 06:25:21;;;;;;;2.67;1.83;;;13.80;74.10;;;;;;20762759;28;20030;-65
2021/04/11 06:35:29;;;;;;;2.85;1.58;;;13.80;74.30;;;;;;20758841;28;20022;-62
2021/04/11 06:46:03;;;;;;;2.30;1.63;;;14.00;73.70;;;;;;20756117;28;20030;-62
2021/04/11 06:56:36;;;;;;;2.00;1.20;;;14.10;73.50;;;;;;20348009;29;20162;-62
2021/04/11 07:06:58;;;;;;;2.63;1.60;;;14.10;73.50;;;;;;20347002;29;20044;-60
2021/04/11 07:17:11;;;;;;;2.40;1.60;;;14.20;73.00;;;;;;20347029;29;20501;-62
2021/04/11 07:27:48;;;;;;;2.92;1.67;;;14.20;73.00;;;;;;20493794;28;20056;-61
2021/04/11 07:38:11;;;;;;;2.30;1.40;;;14.40;72.60;;;;;;20754618;28;20386;-64
2021/04/11 07:48:33;;;;;;;2.25;1.52;;;14.60;72.30;;;;;;20752227;28;20034;-61
2021/04/11 07:58:33;;;;;;;2.60;1.00;;;14.70;72.20;;;;;;20749551;28;20111;-61
2021/04/11 08:08:53;;;;;;;1.67;1.00;;;14.70;71.50;;;;;;20749572;28;20073;-62
2021/04/11 08:18:59;;;;;;;2.85;1.92;;;15.40;69.80;;;;;;20749313;28;20103;-61
2021/04/11 08:29:16;;;;;;;3.63;1.10;;;15.90;68.20;;;;;;20748777;28;20022;-62
2021/04/11 08:39:36;;;;;;;2.53;1.20;;;16.20;67.30;;;;;;20749170;28;20045;-61
2021/04/11 08:49:52;;;;;;;1.00;0.70;;;16.40;65.70;;;;;;20757279;28;20478;-63
2021/04/11 08:59:59;;;;;;;1.85;0.60;;;16.70;64.00;;;;;;20762970;28;20402;-64
2021/04/11 09:10:12;;;;;;;3.40;1.38;;;16.70;63.30;;;;;;20761387;28;20025;-62
2021/04/11 09:20:34;;;;;;;2.00;0.63;;;17.00;62.80;;;;;;20760349;28;20046;-60
2021/04/11 09:30:57;;;;;;;1.30;0.80;;;17.40;61.30;;;;;;20757708;28;20131;-62
2021/04/11 09:41:35;;;;;;;1.37;0.70;;;17.60;59.40;;;;;;20759183;28;20095;-63
2021/04/11 09:51:36;;;;;;;2.70;1.50;;;17.60;59.10;;;;;;20757581;28;20117;-63
2021/04/11 10:02:03;;;;;;;1.55;0.65;;;17.60;58.90;;;;;;20756402;28;20092;-61
2021/04/11 10:12:43;;;;;;;1.20;0.70;;;17.70;55.60;;;;;;20757076;28;20080;-63
2021/04/11 10:22:52;;;;;;;0.85;0.50;;;17.80;56.00;;;;;;20349899;29;20563;-62
2021/04/11 10:33:17;;;;;;;1.10;0.60;;;18.00;55.90;;;;;;20347789;29;20032;-63
2021/04/11 10:43:39;;;;;;;1.15;0.50;;;18.00;55.00;;;;;;20347991;29;20063;-62
2021/04/11 10:54:12;;;;;;;1.23;0.60;;;18.20;54.10;;;;;;20466494;28;20038;-63
2021/04/11 11:04:30;;;;;;;3.08;1.55;;;18.40;52.80;;;;;;20345228;29;20052;-61
2021/04/11 11:14:46;;;;;;;4.88;3.13;;;18.60;52.60;;;;;;20343949;29;20044;-64
2021/04/11 11:25:17;;;;;;;7.72;4.75;;;18.90;52.60;;;;;;20342923;29;20386;-63
2021/04/11 11:35:19;;;;;;;2.00;0.70;;;18.80;51.50;;;;;;20503217;28;20359;-63
2021/04/11 11:45:58;;;;;;;0.47;0.40;;;18.80;51.70;;;;;;20749426;28;20045;-64
2021/04/11 11:56:05;;;;;;;1.40;0.60;;;18.90;51.30;;;;;;20340922;29;20387;-63
2021/04/11 12:06:16;;;;;;;1.75;0.65;;;19.50;50.10;;;;;;20340647;29;20063;-64
2021/04/11 12:16:28;;;;;;;2.00;0.90;;;19.70;49.60;;;;;;20340012;29;20396;-63
2021/04/11 12:26:32;;;;;;;2.08;0.80;;;19.20;50.20;;;;;;20479641;28;20045;-64
2021/04/11 12:36:53;;;;;;;2.78;1.13;;;18.40;48.70;;;;;;20762323;28;20096;-61
2021/04/11 12:47:16;;;;;;;3.38;1.30;;;17.80;49.80;;;;;;20761858;28;20406;-63
2021/04/11 12:57:30;;;;;;;2.53;1.08;;;17.50;55.00;;;;;;20762846;28;20065;-63
2021/04/11 13:07:37;;;;;;;;;;;17.20;57.80;;;;;;20771825;28;20061;-62
2021/04/11 13:18:11;;;;;;;4.47;1.35;;;16.80;60.50;;;;;;20764971;28;19905;-61
2021/04/11 13:28:22;;;;;;;4.50;2.00;;;16.90;62.40;;;;;;20759836;28;20116;-62
2021/04/11 13:38:34;;;;;;;6.35;2.67;;;16.90;63.40;;;;;;20756235;28;20042;-63
2021/04/11 13:49:00;;;;;;;3.85;2.63;;;16.90;65.90;;;;;;20758321;28;20474;-64
2021/04/11 13:59:26;;;;;;;3.08;1.50;;;17.00;65.40;;;;;;20757338;28;20450;-64
2021/04/11 14:09:49;;;;;;;1.20;0.80;;;17.40;62.50;;;;;;20757420;28;20481;-62
2021/04/11 14:20:13;;;;;;;2.47;1.00;;;18.10;58.10;;;;;;20755762;28;20034;-63
2021/04/11 14:30:22;;;;;;;1.98;0.60;;;18.30;56.50;;;;;;20755294;28;20026;-65
2021/04/11 14:40:37;;;;;;;3.28;1.23;;;18.50;54.90;;;;;;20754380;28;20037;-61
2021/04/11 14:50:41;;;;;;;0.70;0.50;;;18.70;54.00;;;;;;20753264;28;20032;-64
2021/04/11 15:01:07;;;;;;;1.17;0.63;;;18.80;52.10;;;;;;20752681;28;20049;-63
2021/04/11 15:11:28;;;;;;;1.50;0.80;;;18.90;52.40;;;;;;20752136;28;20556;-65
2021/04/11 15:21:44;;;;;;;0.90;0.60;;;19.00;51.70;;;;;;20751163;28;20026;-65
2021/04/11 15:31:59;;;;;;;0.82;0.73;;;19.20;51.00;;;;;;20750736;28;20029;-61
2021/04/11 15:42:20;;;;;;;1.20;0.60;;;19.30;48.30;;;;;;20749962;28;20449;-67
2021/04/11 15:52:47;;;;;;;2.13;0.73;;;19.10;49.50;;;;;;20748102;28;20045;-61
2021/04/11 16:03:09;;;;;;;2.25;0.70;;;18.60;50.20;;;;;;20340716;29;20063;-60
2021/04/11 16:13:37;;;;;;;2.42;0.80;;;18.30;51.40;;;;;;20339910;29;20037;-64
2021/04/11 16:24:25;;;;;;;2.08;0.80;;;18.30;52.30;;;;;;20340425;29;20502;-62
2021/04/11 16:34:58;;;;;;;1.88;0.80;;;18.30;51.30;;;;;;20187956;29;20489;-64
2021/04/11 16:45:13;;;;;;;2.07;1.10;;;18.10;51.60;;;;;;20339580;29;20556;-64
2021/04/11 16:55:38;;;;;;;1.05;0.60;;;17.90;52.00;;;;;;20338242;29;20132;-60
2021/04/11 17:06:02;;;;;;;1.48;0.82;;;17.90;53.70;;;;;;20521894;28;20050;-61
2021/04/11 17:16:32;;;;;;;1.52;0.70;;;17.70;56.40;;;;;;20761152;28;20381;-60
2021/04/11 17:27:01;;;;;;;1.40;0.60;;;17.30;57.00;;;;;;20760298;28;20540;-64
2021/04/11 17:37:26;;;;;;;0.77;0.50;;;17.20;56.90;;;;;;20759820;28;20477;-65
2021/04/11 17:47:47;;;;;;;1.10;0.60;;;16.90;56.80;;;;;;20758336;28;20034;-64
2021/04/11 17:58:23;;;;;;;0.95;0.60;;;16.70;57.30;;;;;;20757659;28;20060;-64
2021/04/11 18:08:29;;;;;;;3.80;0.57;;;16.70;57.60;;;;;;20348968;29;20111;-62
2021/04/11 18:18:54;;;;;;;1.75;1.00;;;16.30;59.00;;;;;;20348549;29;20075;-61
2021/04/11 18:28:59;;;;;;;1.52;0.60;;;16.10;60.20;;;;;;20347912;29;20437;-62
2021/04/11 18:39:26;;;;;;;2.03;0.98;;;15.90;59.90;;;;;;20460689;28;20076;-62
2021/04/11 18:49:46;;;;;;;2.22;0.77;;;15.70;60.50;;;;;;20708011;28;20141;-61
2021/04/11 19:00:32;;;;;;;1.27;0.90;;;15.50;60.40;;;;;;20779953;28;20088;-64
2021/04/11 19:10:54;;;;;;;1.38;1.13;;;15.20;60.90;;;;;;20753197;28;20489;-64
2021/04/11 19:21:32;;;;;;;1.83;0.90;;;14.90;61.50;;;;;;20751675;28;20045;-59
2021/04/11 19:31:45;;;;;;;0.75;0.50;;;14.80;62.30;;;;;;20748817;28;20037;-61
2021/04/11 19:42:33;;;;;;;2.08;1.13;;;14.70;62.20;;;;;;20749811;28;20478;-61
2021/04/11 19:52:48;;;;;;;1.00;0.60;;;14.50;61.90;;;;;;20341874;29;20047;-62
2021/04/11 20:02:52;;;;;;;1.02;0.60;;;14.30;61.50;;;;;;20325048;29;20058;-61
2021/04/11 20:13:13;;;;;;;1.45;0.60;;;14.10;61.60;;;;;;20327305;29;20137;-64
2021/04/11 20:23:29;;;;;;;2.47;0.70;;;14.00;61.50;;;;;;20452110;28;20474;-65
2021/04/11 20:33:39;;;;;;;2.17;0.85;;;14.00;61.20;;;;;;20666974;28;20037;-60
2021/04/11 20:43:57;;;;;;;1.38;0.60;;;13.70;61.10;;;;;;20674354;28;20038;-61
2021/04/11 20:54:34;;;;;;;1.30;0.60;;;13.60;59.80;;;;;;20683049;28;20039;-60
2021/04/11 21:05:07;;;;;;;2.58;0.63;;;13.40;59.70;;;;;;20353626;29;20079;-61
2021/04/11 21:15:23;;;;;;;1.23;0.70;;;13.30;60.20;;;;;;20337084;29;20041;-61
2021/04/11 21:25:55;;;;;;;2.53;0.70;;;13.20;61.00;;;;;;20352693;29;20156;-60
2021/04/11 21:36:17;;;;;;;1.45;0.73;;;13.00;60.50;;;;;;20489681;28;20052;-65
2021/04/11 21:46:26;;;;;;;1.63;0.70;;;12.80;60.80;;;;;;20759185;28;20046;-65
2021/04/11 21:57:05;;;;;;;1.60;0.60;;;12.70;59.80;;;;;;20757336;28;20068;-63
2021/04/11 22:07:13;;;;;;;1.08;0.57;;;12.50;60.40;;;;;;20757470;28;20133;-61
2021/04/11 22:17:46;;;;;;;1.38;0.60;;;12.30;60.50;;;;;;20755398;28;20470;-61
2021/04/11 22:27:54;;;;;;;1.20;0.60;;;12.30;59.50;;;;;;20348060;29;20051;-60
2021/04/11 22:37:58;;;;;;;0.90;0.70;;;12.20;59.50;;;;;;20347581;29;20040;-61
2021/04/11 22:48:05;;;;;;;1.10;0.83;;;12.00;59.70;;;;;;20346474;29;20048;-64
2021/04/11 22:58:24;;;;;;;1.08;0.80;;;11.90;59.50;;;;;;20438485;28;20133;-64
2021/04/11 23:08:41;;;;;;;1.30;1.00;;;11.70;59.70;;;;;;20751528;28;20069;-60
2021/04/11 23:19:00;;;;;;;1.88;1.00;;;11.70;58.50;;;;;;20751797;28;20048;-60
2021/04/11 23:29:20;;;;;;;2.40;1.50;;;11.70;57.90;;;;;;20750971;28;20038;-61
2021/04/11 23:39:35;;;;;;;1.60;1.10;;;11.50;58.50;;;;;;20748586;28;20529;-58
2021/04/11 23:49:48;;;;;;;1.85;1.23;;;11.50;58.20;;;;;;20748113;28;20112;-64
